Time,TemperatureF,DewpointF,PressureIn,WindDirection,WindDirectionDegrees,WindSpeedMPH,WindSpeedGustMPH,Humidity,HourlyPrecipIn,Conditions,Clouds,dailyrainin,SoftwareType,DateUTC
2013-01-13 00:01:00,34.0,17.8,30.05,North,0,0.0,0.0,51,0.00,,,0.00,WUHU216HW,2013-01-13 08:01:00,
2013-01-13 00:07:00,34.0,17.7,30.04,North,0,0.0,0.0,51,0.00,,,0.00,WUHU216HW,2013-01-13 08:07:00,
2013-01-13 00:12:00,34.0,17.7,30.04,North,0,0.0,0.0,51,0.00,,,0.00,WUHU216HW,2013-01-13 08:12:00,
2013-01-13 00:17:00,34.2,17.4,30.04,North,0,0.0,0.0,50,0.00,,,0.00,WUHU216HW,2013-01-13 08:17:00,
2013-01-13 00:22:00,34.0,17.2,30.04,North,0,0.0,0.0,50,0.00,,,0.00,WUHU216HW,2013-01-13 08:22:00,
2013-01-13 00:27:00,34.0,16.8,30.04,North,0,0.0,0.0,49,0.00,,,0.00,WUHU216HW,2013-01-13 08:27:00,
2013-01-13 00:32:00,34.0,16.7,30.04,North,0,0.0,0.0,49,0.00,,,0.00,WUHU216HW,2013-01-13 08:32:00,
2013-01-13 00:37:00,34.0,16.7,30.04,North,0,0.0,0.0,49,0.00,,,0.00,WUHU216HW,2013-01-13 08:37:00,
2013-01-13 00:42:00,34.2,16.4,30.04,North,0,0.0,0.0,48,0.00,,,0.00,WUHU216HW,2013-01-13 08:42:00,
2013-01-13 00:47:00,34.0,16.7,30.03,North,0,0.0,0.0,49,0.00,,,0.00,WUHU216HW,2013-01-13 08:47:00,
2013-01-13 00:52:00,34.0,16.7,30.03,North,0,0.0,0.0,49,0.00,,,0.00,WUHU216HW,2013-01-13 08:52:00,
2013-01-13 00:57:00,34.0,16.2,30.03,North,0,0.0,0.0,48,0.00,,,0.00,WUHU216HW,2013-01-13 08:57:00,
2013-01-13 01:03:00,34.1,16.4,30.03,North,0,0.0,0.0,48,0.00,,,0.00,WUHU216HW,2013-01-13 09:03:00,
2013-01-13 01:08:00,34.5,15.8,30.03,North,0,0.0,0.0,46,0.00,,,0.00,WUHU216HW,2013-01-13 09:08:00,
2013-01-13 01:13:00,34.6,16.4,30.03,North,0,0.0,0.0,47,0.00,,,0.00,WUHU216HW,2013-01-13 09:13:00,
2013-01-13 01:18:00,34.6,14.8,30.04,North,0,0.0,0.0,44,0.00,,,0.00,WUHU216HW,2013-01-13 09:18:00,
2013-01-13 01:23:00,34.8,15.0,30.04,North,0,0.0,0.0,44,0.00,,,0.00,WUHU216HW,2013-01-13 09:23:00,
2013-01-13 01:28:00,34.8,15.5,30.04,North,0,0.0,0.0,45,0.00,,,0.00,WUHU216HW,2013-01-13 09:28:00,
2013-01-13 01:33:00,35.0,14.0,30.04,North,0,0.0,0.0,42,0.00,,,0.00,WUHU216HW,2013-01-13 09:33:00,
2013-01-13 01:38:00,35.0,15.7,30.04,North,0,0.0,0.0,45,0.00,,,0.00,WUHU216HW,2013-01-13 09:38:00,
2013-01-13 01:43:00,35.2,15.8,30.04,North,0,0.0,0.0,45,0.00,,,0.00,WUHU216HW,2013-01-13 09:43:00,
2013-01-13 01:48:00,35.2,14.8,30.04,North,0,0.0,0.0,43,0.00,,,0.00,WUHU216HW,2013-01-13 09:48:00,
2013-01-13 01:53:00,35.2,14.8,30.04,North,0,0.0,0.0,43,0.00,,,0.00,WUHU216HW,2013-01-13 09:53:00,
2013-01-13 01:58:00,35.2,14.2,30.04,North,0,0.0,0.0,42,0.00,,,0.00,WUHU216HW,2013-01-13 09:58:00,
2013-01-13 02:04:00,35.2,15.3,30.05,North,0,0.0,0.0,44,0.00,,,0.00,WUHU216HW,2013-01-13 10:04:00,
2013-01-13 02:09:00,35.2,13.7,30.05,North,0,0.0,0.0,41,0.00,,,0.00,WUHU216HW,2013-01-13 10:09:00,
2013-01-13 02:14:00,35.4,13.8,30.05,North,0,0.0,0.0,41,0.00,,,0.00,WUHU216HW,2013-01-13 10:14:00,
2013-01-13 02:19:00,35.4,14.4,30.04,North,0,0.0,0.0,42,0.00,,,0.00,WUHU216HW,2013-01-13 10:19:00,
2013-01-13 02:24:00,35.2,13.7,30.04,North,0,0.0,0.0,41,0.00,,,0.00,WUHU216HW,2013-01-13 10:24:00,
2013-01-13 02:29:00,35.2,12.5,30.04,North,0,0.0,0.0,39,0.00,,,0.00,WUHU216HW,2013-01-13 10:29:00,
2013-01-13 02:34:00,35.2,14.2,30.05,North,0,0.0,0.0,42,0.00,,,0.00,WUHU216HW,2013-01-13 10:34:00,
2013-01-13 02:39:00,35.2,13.1,30.04,North,0,0.0,0.0,40,0.00,,,0.00,WUHU216HW,2013-01-13 10:39:00,
2013-01-13 02:44:00,35.2,14.8,30.04,North,0,0.0,0.0,43,0.00,,,0.00,WUHU216HW,2013-01-13 10:44:00,
2013-01-13 02:49:00,34.8,13.9,30.05,North,0,0.0,0.0,42,0.00,,,0.00,WUHU216HW,2013-01-13 10:49:00,
2013-01-13 02:54:00,34.6,13.7,30.05,North,0,0.0,0.0,42,0.00,,,0.00,WUHU216HW,2013-01-13 10:54:00,
2013-01-13 03:00:00,34.6,13.7,30.05,North,0,0.0,0.0,42,0.00,,,0.00,WUHU216HW,2013-01-13 11:00:00,
2013-01-13 03:05:00,34.6,14.2,30.05,North,0,0.0,0.0,43,0.00,,,0.00,WUHU216HW,2013-01-13 11:05:00,
2013-01-13 03:10:00,34.3,14.5,30.05,North,0,0.0,0.0,44,0.00,,,0.00,WUHU216HW,2013-01-13 11:10:00,
2013-01-13 03:15:00,33.9,13.6,30.05,North,0,0.0,0.0,43,0.00,,,0.00,WUHU216HW,2013-01-13 11:15:00,
2013-01-13 03:20:00,33.6,13.3,30.05,North,0,0.0,0.0,43,0.00,,,0.00,WUHU216HW,2013-01-13 11:20:00,
2013-01-13 03:25:00,33.6,13.3,30.05,North,0,0.0,0.0,43,0.00,,,0.00,WUHU216HW,2013-01-13 11:25:00,
2013-01-13 03:30:00,33.6,12.8,30.05,North,0,0.0,0.0,42,0.00,,,0.00,WUHU216HW,2013-01-13 11:30:00,
2013-01-13 03:35:00,33.6,13.4,30.05,North,0,0.0,0.0,43,0.00,,,0.00,WUHU216HW,2013-01-13 11:35:00,
2013-01-13 03:40:00,33.5,12.6,30.05,North,0,0.0,0.0,42,0.00,,,0.00,WUHU216HW,2013-01-13 11:40:00,
2013-01-13 03:45:00,33.3,12.5,30.05,North,0,0.0,0.0,42,0.00,,,0.00,WUHU216HW,2013-01-13 11:45:00,
2013-01-13 03:50:00,33.1,12.3,30.04,North,0,0.0,0.0,42,0.00,,,0.00,WUHU216HW,2013-01-13 11:50:00,
2013-01-13 03:55:00,32.9,12.7,30.04,North,0,0.0,0.0,43,0.00,,,0.00,WUHU216HW,2013-01-13 11:55:00,
2013-01-13 04:01:00,32.8,14.1,30.04,North,0,0.0,0.0,46,0.00,,,0.00,WUHU216HW,2013-01-13 12:01:00,
2013-01-13 04:06:00,32.4,15.3,30.04,North,0,0.0,0.0,49,0.00,,,0.00,WUHU216HW,2013-01-13 12:06:00,
2013-01-13 04:11:00,32.2,14.6,30.04,North,0,0.0,0.0,48,0.00,,,0.00,WUHU216HW,2013-01-13 12:11:00,
2013-01-13 04:16:00,32.4,14.3,30.04,North,0,0.0,0.0,47,0.00,,,0.00,WUHU216HW,2013-01-13 12:16:00,
2013-01-13 04:21:00,32.4,14.3,30.04,North,0,0.0,0.0,47,0.00,,,0.00,WUHU216HW,2013-01-13 12:21:00,
2013-01-13 04:26:00,32.4,14.3,30.03,North,0,0.0,0.0,47,0.00,,,0.00,WUHU216HW,2013-01-13 12:26:00,
2013-01-13 04:31:00,32.4,13.8,30.04,North,0,0.0,0.0,46,0.00,,,0.00,WUHU216HW,2013-01-13 12:31:00,
2013-01-13 04:36:00,32.3,13.1,30.04,North,0,0.0,0.0,45,0.00,,,0.00,WUHU216HW,2013-01-13 12:36:00,
2013-01-13 04:41:00,32.0,13.9,30.05,North,0,0.0,0.0,47,0.00,,,0.00,WUHU216HW,2013-01-13 12:41:00,
2013-01-13 04:46:00,31.8,13.7,30.04,North,0,0.0,0.0,47,0.00,,,0.00,WUHU216HW,2013-01-13 12:46:00,
2013-01-13 04:51:00,31.4,13.4,30.04,North,0,0.0,0.0,47,0.00,,,0.00,WUHU216HW,2013-01-13 12:51:00,
2013-01-13 04:56:00,31.2,13.7,30.04,North,0,0.0,0.0,48,0.00,,,0.00,WUHU216HW,2013-01-13 12:56:00,
2013-01-13 05:01:00,31.4,12.9,30.05,North,0,0.0,0.0,46,0.00,,,0.00,WUHU216HW,2013-01-13 13:01:00,
2013-01-13 05:06:00,31.2,16.0,30.05,North,0,0.0,0.0,53,0.00,,,0.00,WUHU216HW,2013-01-13 13:06:00,
2013-01-13 05:12:00,30.7,13.7,30.05,North,0,0.0,0.0,49,0.00,,,0.00,WUHU216HW,2013-01-13 13:12:00,
2013-01-13 05:17:00,30.6,15.0,30.05,North,0,0.0,0.0,52,0.00,,,0.00,WUHU216HW,2013-01-13 13:17:00,
2013-01-13 05:22:00,30.8,15.2,30.05,North,0,0.0,0.0,52,0.00,,,0.00,WUHU216HW,2013-01-13 13:22:00,
2013-01-13 05:27:00,30.8,15.2,30.05,North,0,0.0,0.0,52,0.00,,,0.00,WUHU216HW,2013-01-13 13:27:00,
2013-01-13 05:32:00,30.6,15.0,30.05,North,0,0.0,0.0,52,0.00,,,0.00,WUHU216HW,2013-01-13 13:32:00,
2013-01-13 05:37:00,30.6,14.6,30.04,North,0,0.0,0.0,51,0.00,,,0.00,WUHU216HW,2013-01-13 13:37:00,
2013-01-13 05:42:00,30.6,14.6,30.05,North,0,0.0,0.0,51,0.00,,,0.00,WUHU216HW,2013-01-13 13:42:00,
2013-01-13 05:47:00,30.6,14.6,30.05,North,0,0.0,0.0,51,0.00,,,0.00,WUHU216HW,2013-01-13 13:47:00,
2013-01-13 05:52:00,30.5,14.4,30.05,North,0,0.0,0.0,51,0.00,,,0.00,WUHU216HW,2013-01-13 13:52:00,
2013-01-13 05:57:00,30.9,14.3,30.05,North,0,0.0,0.0,50,0.00,,,0.00,WUHU216HW,2013-01-13 13:57:00,
2013-01-13 06:02:00,31.4,15.3,30.06,North,0,0.0,0.0,51,0.00,,,0.00,WUHU216HW,2013-01-13 14:02:00,
2013-01-13 06:07:00,31.1,17.7,30.06,North,0,0.0,0.0,57,0.00,,,0.00,WUHU216HW,2013-01-13 14:07:00,
2013-01-13 06:12:00,30.4,17.4,30.06,North,0,0.0,0.0,58,0.00,,,0.00,WUHU216HW,2013-01-13 14:12:00,
2013-01-13 06:17:00,30.0,15.8,30.06,North,0,0.0,0.0,55,0.00,,,0.00,WUHU216HW,2013-01-13 14:17:00,
2013-01-13 06:22:00,30.6,15.0,30.07,North,0,0.0,0.0,52,0.00,,,0.00,WUHU216HW,2013-01-13 14:22:00,
2013-01-13 06:28:00,30.8,15.2,30.07,North,0,0.0,0.0,52,0.00,,,0.00,WUHU216HW,2013-01-13 14:28:00,
2013-01-13 06:33:00,31.0,15.4,30.07,North,0,0.0,0.0,52,0.00,,,0.00,WUHU216HW,2013-01-13 14:33:00,
2013-01-13 06:38:00,30.6,16.8,30.07,North,0,0.0,0.0,56,0.00,,,0.00,WUHU216HW,2013-01-13 14:38:00,
2013-01-13 06:43:00,30.5,14.5,30.07,North,0,0.0,0.0,51,0.00,,,0.00,WUHU216HW,2013-01-13 14:43:00,
2013-01-13 06:48:00,30.6,15.0,30.07,North,0,0.0,0.0,52,0.00,,,0.00,WUHU216HW,2013-01-13 14:48:00,
2013-01-13 06:53:00,30.9,14.8,30.07,North,0,0.0,0.0,51,0.00,,,0.00,WUHU216HW,2013-01-13 14:53:00,
2013-01-13 06:58:00,31.5,14.4,30.07,North,0,0.0,0.0,49,0.00,,,0.00,WUHU216HW,2013-01-13 14:58:00,
2013-01-13 07:03:00,32.0,13.4,30.07,North,0,0.0,0.0,46,0.00,,,0.00,WUHU216HW,2013-01-13 15:03:00,
2013-01-13 07:08:00,32.4,13.8,30.07,North,0,0.0,0.0,46,0.00,,,0.00,WUHU216HW,2013-01-13 15:08:00,
2013-01-13 07:13:00,32.7,13.1,30.07,North,0,0.0,0.0,44,0.00,,,0.00,WUHU216HW,2013-01-13 15:13:00,
2013-01-13 07:18:00,33.1,12.4,30.07,North,0,0.0,0.0,42,0.00,,,0.00,WUHU216HW,2013-01-13 15:18:00,
2013-01-13 07:23:00,33.4,13.1,30.07,North,0,0.0,0.0,43,0.00,,,0.00,WUHU216HW,2013-01-13 15:23:00,
2013-01-13 07:28:00,33.4,12.0,30.07,North,0,0.0,0.0,41,0.00,,,0.00,WUHU216HW,2013-01-13 15:28:00,
2013-01-13 07:33:00,33.5,13.2,30.07,North,0,0.0,0.0,43,0.00,,,0.00,WUHU216HW,2013-01-13 15:33:00,
2013-01-13 07:39:00,33.4,12.6,30.07,North,0,0.0,0.0,42,0.00,,,0.00,WUHU216HW,2013-01-13 15:39:00,
2013-01-13 07:44:00,33.2,13.5,30.08,North,0,0.0,0.0,44,0.00,,,0.00,WUHU216HW,2013-01-13 15:44:00,
2013-01-13 07:49:00,32.9,13.2,30.08,North,0,0.0,0.0,44,0.00,,,0.00,WUHU216HW,2013-01-13 15:49:00,
2013-01-13 07:54:00,32.7,11.9,30.08,North,0,0.0,0.0,42,0.00,,,0.00,WUHU216HW,2013-01-13 15:54:00,
2013-01-13 07:59:00,32.7,13.6,30.08,North,0,0.0,0.0,45,0.00,,,0.00,WUHU216HW,2013-01-13 15:59:00,
2013-01-13 08:04:00,33.3,12.5,30.09,North,0,0.0,0.0,42,0.00,,,0.00,WUHU216HW,2013-01-13 16:04:00,
2013-01-13 08:09:00,33.8,13.0,30.09,North,0,0.0,0.0,42,0.00,,,0.00,WUHU216HW,2013-01-13 16:09:00,
2013-01-13 08:14:00,34.1,13.2,30.09,North,0,0.0,0.0,42,0.00,,,0.00,WUHU216HW,2013-01-13 16:14:00,
2013-01-13 08:19:00,34.3,12.8,30.09,North,0,0.0,0.0,41,0.00,,,0.00,WUHU216HW,2013-01-13 16:19:00,
2013-01-13 08:25:00,34.6,14.2,30.09,North,0,0.0,0.0,43,0.00,,,0.00,WUHU216HW,2013-01-13 16:25:00,
2013-01-13 08:30:00,34.8,13.9,30.09,North,0,0.0,0.0,42,0.00,,,0.00,WUHU216HW,2013-01-13 16:30:00,
2013-01-13 08:35:00,35.1,14.1,30.09,North,0,0.0,0.0,42,0.00,,,0.00,WUHU216HW,2013-01-13 16:35:00,
2013-01-13 08:40:00,35.5,15.0,30.09,North,0,0.0,0.0,43,0.00,,,0.00,WUHU216HW,2013-01-13 16:40:00,
2013-01-13 08:45:00,35.6,15.1,30.09,North,0,0.0,0.0,43,0.00,,,0.00,WUHU216HW,2013-01-13 16:45:00,
2013-01-13 08:50:00,35.8,15.9,30.09,North,0,0.0,0.0,44,0.00,,,0.00,WUHU216HW,2013-01-13 16:50:00,
2013-01-13 08:55:00,36.2,16.8,30.09,North,0,0.0,0.0,45,0.00,,,0.00,WUHU216HW,2013-01-13 16:55:00,
2013-01-13 09:00:00,36.3,15.2,30.09,North,0,0.0,0.0,42,0.00,,,0.00,WUHU216HW,2013-01-13 17:00:00,
2013-01-13 09:05:00,36.8,17.3,30.09,North,0,0.0,0.0,45,0.00,,,0.00,WUHU216HW,2013-01-13 17:05:00,
2013-01-13 09:10:00,37.2,15.5,30.09,North,0,0.0,0.0,41,0.00,,,0.00,WUHU216HW,2013-01-13 17:10:00,
2013-01-13 09:15:00,37.5,15.2,30.09,North,0,0.0,0.0,40,0.00,,,0.00,WUHU216HW,2013-01-13 17:15:00,
2013-01-13 09:21:00,37.9,15.6,30.09,North,0,0.0,0.0,40,0.00,,,0.00,WUHU216HW,2013-01-13 17:21:00,
2013-01-13 09:26:00,38.5,14.2,30.09,North,0,0.0,0.0,37,0.00,,,0.00,WUHU216HW,2013-01-13 17:26:00,
2013-01-13 09:31:00,38.7,14.4,30.09,North,0,0.0,0.0,37,0.00,,,0.00,WUHU216HW,2013-01-13 17:31:00,
2013-01-13 09:36:00,38.7,16.8,30.09,North,0,0.0,0.0,41,0.00,,,0.00,WUHU216HW,2013-01-13 17:36:00,
2013-01-13 09:41:00,38.7,18.0,30.09,North,0,0.0,0.0,43,0.00,,,0.00,WUHU216HW,2013-01-13 17:41:00,
2013-01-13 09:46:00,38.8,18.0,30.10,North,0,0.0,0.0,43,0.00,,,0.00,WUHU216HW,2013-01-13 17:46:00,
2013-01-13 09:51:00,38.8,15.7,30.09,North,0,0.0,0.0,39,0.00,,,0.00,WUHU216HW,2013-01-13 17:51:00,
2013-01-13 09:56:00,39.0,18.8,30.09,North,0,0.0,0.0,44,0.00,,,0.00,WUHU216HW,2013-01-13 17:56:00,
2013-01-13 10:01:00,39.4,17.5,30.10,North,0,0.0,0.0,41,0.00,,,0.00,WUHU216HW,2013-01-13 18:01:00,
2013-01-13 10:06:00,39.4,19.7,30.10,North,0,0.0,0.0,45,0.00,,,0.00,WUHU216HW,2013-01-13 18:06:00,
2013-01-13 10:11:00,39.5,19.2,30.10,North,0,0.0,0.0,44,0.00,,,0.00,WUHU216HW,2013-01-13 18:11:00,
2013-01-13 10:16:00,39.6,16.4,30.10,North,0,0.0,0.0,39,0.00,,,0.00,WUHU216HW,2013-01-13 18:16:00,
2013-01-13 10:22:00,39.6,17.1,30.10,North,0,0.0,0.0,40,0.00,,,0.00,WUHU216HW,2013-01-13 18:22:00,
2013-01-13 10:27:00,39.6,15.2,30.10,North,0,0.0,0.0,37,0.00,,,0.00,WUHU216HW,2013-01-13 18:27:00,
2013-01-13 10:32:00,39.8,16.1,30.09,North,0,0.0,0.0,38,0.00,,,0.00,WUHU216HW,2013-01-13 18:32:00,
2013-01-13 10:37:00,40.1,15.6,30.09,North,0,0.0,0.0,37,0.00,,,0.00,WUHU216HW,2013-01-13 18:37:00,
2013-01-13 10:42:00,40.3,18.3,30.10,North,0,0.0,0.0,41,0.00,,,0.00,WUHU216HW,2013-01-13 18:42:00,
2013-01-13 10:47:00,40.5,16.7,30.10,North,0,0.0,0.0,38,0.00,,,0.00,WUHU216HW,2013-01-13 18:47:00,
2013-01-13 10:52:00,40.5,17.3,30.10,North,0,0.0,0.0,39,0.00,,,0.00,WUHU216HW,2013-01-13 18:52:00,
2013-01-13 10:57:00,40.5,15.4,30.10,North,0,0.0,0.0,36,0.00,,,0.00,WUHU216HW,2013-01-13 18:57:00,
2013-01-13 11:02:00,40.9,15.7,30.10,North,0,0.0,0.0,36,0.00,,,0.00,WUHU216HW,2013-01-13 19:02:00,
2013-01-13 11:07:00,40.9,13.7,30.10,North,0,0.0,0.0,33,0.00,,,0.00,WUHU216HW,2013-01-13 19:07:00,
2013-01-13 11:12:00,41.3,17.4,30.10,North,0,0.0,0.0,38,0.00,,,0.00,WUHU216HW,2013-01-13 19:12:00,
2013-01-13 11:17:00,41.5,16.3,30.09,North,0,0.0,0.0,36,0.00,,,0.00,WUHU216HW,2013-01-13 19:17:00,
2013-01-13 11:22:00,42.0,18.0,30.09,North,0,0.0,0.0,38,0.00,,,0.00,WUHU216HW,2013-01-13 19:22:00,
2013-01-13 11:27:00,42.2,14.2,30.09,North,0,0.0,0.0,32,0.00,,,0.00,WUHU216HW,2013-01-13 19:27:00,
2013-01-13 11:32:00,42.1,11.9,30.09,North,0,0.0,0.0,29,0.00,,,0.00,WUHU216HW,2013-01-13 19:32:00,
2013-01-13 11:38:00,41.9,13.9,30.09,North,0,0.0,0.0,32,0.00,,,0.00,WUHU216HW,2013-01-13 19:38:00,
2013-01-13 11:43:00,41.7,13.7,30.08,North,0,0.0,0.0,32,0.00,,,0.00,WUHU216HW,2013-01-13 19:43:00,
2013-01-13 11:48:00,41.7,13.0,30.08,North,0,0.0,0.0,31,0.00,,,0.00,WUHU216HW,2013-01-13 19:48:00,
2013-01-13 11:53:00,41.7,12.3,30.08,North,0,0.0,0.0,30,0.00,,,0.00,WUHU216HW,2013-01-13 19:53:00,
2013-01-13 11:58:00,42.1,11.9,30.08,North,0,0.0,0.0,29,0.00,,,0.00,WUHU216HW,2013-01-13 19:58:00,
2013-01-13 12:03:00,42.2,14.2,30.08,North,0,0.0,0.0,32,0.00,,,0.00,WUHU216HW,2013-01-13 20:03:00,
2013-01-13 12:08:00,42.0,14.0,30.08,North,0,0.0,0.0,32,0.00,,,0.00,WUHU216HW,2013-01-13 20:08:00,
2013-01-13 12:13:00,42.0,14.7,30.07,North,0,0.0,0.0,33,0.00,,,0.00,WUHU216HW,2013-01-13 20:13:00,
2013-01-13 12:18:00,42.2,16.9,30.07,North,0,0.0,0.0,36,0.00,,,0.00,WUHU216HW,2013-01-13 20:18:00,
2013-01-13 12:23:00,42.2,16.3,30.07,North,0,0.0,0.0,35,0.00,,,0.00,WUHU216HW,2013-01-13 20:23:00,
2013-01-13 12:29:00,42.4,16.4,30.06,North,0,0.0,0.0,35,0.00,,,0.00,WUHU216HW,2013-01-13 20:29:00,
2013-01-13 12:34:00,42.6,17.9,30.06,North,0,0.0,0.0,37,0.00,,,0.00,WUHU216HW,2013-01-13 20:34:00,
2013-01-13 12:39:00,42.6,17.9,30.06,North,0,0.0,0.0,37,0.00,,,0.00,WUHU216HW,2013-01-13 20:39:00,
2013-01-13 12:44:00,42.7,18.0,30.06,North,0,0.0,0.0,37,0.00,,,0.00,WUHU216HW,2013-01-13 20:44:00,
2013-01-13 12:49:00,43.0,16.9,30.06,North,0,0.0,0.0,35,0.00,,,0.00,WUHU216HW,2013-01-13 20:49:00,
2013-01-13 12:54:00,43.0,17.6,30.06,North,0,0.0,0.0,36,0.00,,,0.00,WUHU216HW,2013-01-13 20:54:00,
2013-01-13 12:59:00,43.0,17.0,30.06,North,0,0.0,0.0,35,0.00,,,0.00,WUHU216HW,2013-01-13 20:59:00,
2013-01-13 13:04:00,43.4,18.0,30.06,North,0,0.0,0.0,36,0.00,,,0.00,WUHU216HW,2013-01-13 21:04:00,
2013-01-13 13:09:00,43.6,15.4,30.06,North,0,0.0,0.0,32,0.00,,,0.00,WUHU216HW,2013-01-13 21:09:00,
2013-01-13 13:14:00,43.7,14.1,30.06,North,0,0.0,0.0,30,0.00,,,0.00,WUHU216HW,2013-01-13 21:14:00,
2013-01-13 13:19:00,43.7,16.2,30.05,North,0,0.0,0.0,33,0.00,,,0.00,WUHU216HW,2013-01-13 21:19:00,
2013-01-13 13:24:00,43.7,15.5,30.06,North,0,0.0,0.0,32,0.00,,,0.00,WUHU216HW,2013-01-13 21:24:00,
2013-01-13 13:29:00,43.7,18.3,30.06,North,0,0.0,0.0,36,0.00,,,0.00,WUHU216HW,2013-01-13 21:29:00,
2013-01-13 13:35:00,44.0,16.4,30.06,North,0,0.0,0.0,33,0.00,,,0.00,WUHU216HW,2013-01-13 21:35:00,
2013-01-13 13:40:00,44.2,18.0,30.06,North,0,0.0,0.0,35,0.00,,,0.00,WUHU216HW,2013-01-13 21:40:00,
2013-01-13 13:45:00,44.2,16.6,30.06,North,0,0.0,0.0,33,0.00,,,0.00,WUHU216HW,2013-01-13 21:45:00,
2013-01-13 13:50:00,44.7,18.4,30.06,North,0,0.0,0.0,35,0.00,,,0.00,WUHU216HW,2013-01-13 21:50:00,
2013-01-13 13:55:00,45.5,17.1,30.06,North,0,0.0,0.0,32,0.00,,,0.00,WUHU216HW,2013-01-13 21:55:00,
2013-01-13 14:00:00,45.6,16.4,30.06,North,0,0.0,0.0,31,0.00,,,0.00,WUHU216HW,2013-01-13 22:00:00,
2013-01-13 14:05:00,45.3,16.9,30.05,North,0,0.0,0.0,32,0.00,,,0.00,WUHU216HW,2013-01-13 22:05:00,
2013-01-13 14:10:00,45.6,17.9,30.05,North,0,0.0,0.0,33,0.00,,,0.00,WUHU216HW,2013-01-13 22:10:00,
2013-01-13 14:15:00,46.0,17.5,30.05,North,0,0.0,0.0,32,0.00,,,0.00,WUHU216HW,2013-01-13 22:15:00,
2013-01-13 14:20:00,46.5,18.7,30.05,North,0,0.0,0.0,33,0.00,,,0.00,WUHU216HW,2013-01-13 22:20:00,
2013-01-13 14:25:00,46.5,17.2,30.05,North,0,0.0,0.0,31,0.00,,,0.00,WUHU216HW,2013-01-13 22:25:00,
2013-01-13 14:30:00,46.0,16.8,30.05,North,0,0.0,0.0,31,0.00,,,0.00,WUHU216HW,2013-01-13 22:30:00,
2013-01-13 14:36:00,45.6,16.5,30.05,North,0,0.0,0.0,31,0.00,,,0.00,WUHU216HW,2013-01-13 22:36:00,
2013-01-13 14:41:00,45.5,17.1,30.05,North,0,0.0,0.0,32,0.00,,,0.00,WUHU216HW,2013-01-13 22:41:00,
2013-01-13 14:46:00,45.3,16.2,30.05,North,0,0.0,0.0,31,0.00,,,0.00,WUHU216HW,2013-01-13 22:46:00,
2013-01-13 14:51:00,45.1,16.0,30.05,North,0,0.0,0.0,31,0.00,,,0.00,WUHU216HW,2013-01-13 22:51:00,
2013-01-13 14:56:00,44.7,15.7,30.05,North,0,0.0,0.0,31,0.00,,,0.00,WUHU216HW,2013-01-13 22:56:00,
2013-01-13 15:01:00,45.1,14.5,30.05,North,0,0.0,0.0,29,0.00,,,0.00,WUHU216HW,2013-01-13 23:01:00,
2013-01-13 15:06:00,45.3,14.7,30.05,North,0,0.0,0.0,29,0.00,,,0.00,WUHU216HW,2013-01-13 23:06:00,
2013-01-13 15:11:00,45.1,16.0,30.05,North,0,0.0,0.0,31,0.00,,,0.00,WUHU216HW,2013-01-13 23:11:00,
2013-01-13 15:16:00,44.7,14.9,30.05,North,0,0.0,0.0,30,0.00,,,0.00,WUHU216HW,2013-01-13 23:16:00,
2013-01-13 15:22:00,44.6,13.3,30.06,North,0,0.0,0.0,28,0.00,,,0.00,WUHU216HW,2013-01-13 23:22:00,
2013-01-13 15:27:00,44.7,14.9,30.05,North,0,0.0,0.0,30,0.00,,,0.00,WUHU216HW,2013-01-13 23:27:00,
2013-01-13 15:32:00,44.6,15.6,30.05,North,0,0.0,0.0,31,0.00,,,0.00,WUHU216HW,2013-01-13 23:32:00,
2013-01-13 15:37:00,44.6,14.0,30.05,North,0,0.0,0.0,29,0.00,,,0.00,WUHU216HW,2013-01-13 23:37:00,
2013-01-13 15:42:00,44.6,14.0,30.06,North,0,0.0,0.0,29,0.00,,,0.00,WUHU216HW,2013-01-13 23:42:00,
2013-01-13 15:47:00,44.6,14.8,30.05,North,0,0.0,0.0,30,0.00,,,0.00,WUHU216HW,2013-01-13 23:47:00,
2013-01-13 15:52:00,45.3,14.6,30.05,North,0,0.0,0.0,29,0.00,,,0.00,WUHU216HW,2013-01-13 23:52:00,
2013-01-13 15:57:00,44.7,13.3,30.06,North,0,0.0,0.0,28,0.00,,,0.00,WUHU216HW,2013-01-13 23:57:00,
2013-01-13 16:02:00,44.3,15.4,30.05,North,0,0.0,0.0,31,0.00,,,0.00,WUHU216HW,2013-01-14 00:02:00,
2013-01-13 16:07:00,43.9,14.3,30.05,North,0,0.0,0.0,30,0.00,,,0.00,WUHU216HW,2013-01-14 00:07:00,
2013-01-13 16:12:00,43.7,14.1,30.05,North,0,0.0,0.0,30,0.00,,,0.00,WUHU216HW,2013-01-14 00:12:00,
2013-01-13 16:18:00,43.7,14.1,30.05,North,0,0.0,0.0,30,0.00,,,0.00,WUHU216HW,2013-01-14 00:18:00,
2013-01-13 16:22:00,43.7,15.5,30.05,North,0,0.0,0.0,32,0.00,,,0.00,WUHU216HW,2013-01-14 00:22:00,
2013-01-13 16:28:00,43.2,15.1,30.05,North,0,0.0,0.0,32,0.00,,,0.00,WUHU216HW,2013-01-14 00:28:00,
2013-01-13 16:33:00,43.0,14.9,30.06,North,0,0.0,0.0,32,0.00,,,0.00,WUHU216HW,2013-01-14 00:33:00,
2013-01-13 16:38:00,43.0,15.6,30.06,North,0,0.0,0.0,33,0.00,,,0.00,WUHU216HW,2013-01-14 00:38:00,
2013-01-13 16:43:00,42.7,16.7,30.06,North,0,0.0,0.0,35,0.00,,,0.00,WUHU216HW,2013-01-14 00:43:00,
2013-01-13 16:48:00,42.7,16.7,30.06,North,0,0.0,0.0,35,0.00,,,0.00,WUHU216HW,2013-01-14 00:48:00,
2013-01-13 16:53:00,42.3,17.0,30.06,North,0,0.0,0.0,36,0.00,,,0.00,WUHU216HW,2013-01-14 00:53:00,
2013-01-13 16:58:00,42.2,16.9,30.06,North,0,0.0,0.0,36,0.00,,,0.00,WUHU216HW,2013-01-14 00:58:00,
2013-01-13 17:03:00,41.8,17.2,30.06,North,0,0.0,0.0,37,0.00,,,0.00,WUHU216HW,2013-01-14 01:03:00,
2013-01-13 17:08:00,41.7,17.1,30.06,North,0,0.0,0.0,37,0.00,,,0.00,WUHU216HW,2013-01-14 01:08:00,
2013-01-13 17:13:00,41.5,16.9,30.06,North,0,0.0,0.0,37,0.00,,,0.00,WUHU216HW,2013-01-14 01:13:00,
2013-01-13 17:18:00,41.3,17.4,30.06,North,0,0.0,0.0,38,0.00,,,0.00,WUHU216HW,2013-01-14 01:18:00,
2013-01-13 17:23:00,40.9,17.6,30.07,North,0,0.0,0.0,39,0.00,,,0.00,WUHU216HW,2013-01-14 01:23:00,
2013-01-13 17:29:00,40.8,18.1,30.07,North,0,0.0,0.0,40,0.00,,,0.00,WUHU216HW,2013-01-14 01:29:00,
2013-01-13 17:34:00,40.3,17.7,30.06,North,0,0.0,0.0,40,0.00,,,0.00,WUHU216HW,2013-01-14 01:34:00,
2013-01-13 17:39:00,39.9,17.3,30.07,North,0,0.0,0.0,40,0.00,,,0.00,WUHU216HW,2013-01-14 01:39:00,
2013-01-13 17:44:00,39.9,16.7,30.07,North,0,0.0,0.0,39,0.00,,,0.00,WUHU216HW,2013-01-14 01:44:00,
2013-01-13 17:49:00,40.1,16.9,30.07,North,0,0.0,0.0,39,0.00,,,0.00,WUHU216HW,2013-01-14 01:49:00,
2013-01-13 17:54:00,40.3,17.1,30.07,North,0,0.0,0.0,39,0.00,,,0.00,WUHU216HW,2013-01-14 01:54:00,
2013-01-13 17:59:00,40.1,16.9,30.07,North,0,0.0,0.0,39,0.00,,,0.00,WUHU216HW,2013-01-14 01:59:00,
2013-01-13 18:04:00,40.1,17.5,30.07,North,0,0.0,0.0,40,0.00,,,0.00,WUHU216HW,2013-01-14 02:04:00,
2013-01-13 18:09:00,39.7,17.2,30.07,North,0,0.0,0.0,40,0.00,,,0.00,WUHU216HW,2013-01-14 02:09:00,
2013-01-13 18:14:00,39.7,17.2,30.07,North,0,0.0,0.0,40,0.00,,,0.00,WUHU216HW,2013-01-14 02:14:00,
2013-01-13 18:19:00,39.7,17.1,30.07,North,0,0.0,0.0,40,0.00,,,0.00,WUHU216HW,2013-01-14 02:19:00,
2013-01-13 18:24:00,39.5,16.3,30.07,North,0,0.0,0.0,39,0.00,,,0.00,WUHU216HW,2013-01-14 02:24:00,
2013-01-13 18:30:00,39.5,15.7,30.07,North,0,0.0,0.0,38,0.00,,,0.00,WUHU216HW,2013-01-14 02:30:00,
2013-01-13 18:35:00,39.4,16.3,30.07,North,0,0.0,0.0,39,0.00,,,0.00,WUHU216HW,2013-01-14 02:35:00,
2013-01-13 18:40:00,39.2,15.5,30.07,North,0,0.0,0.0,38,0.00,,,0.00,WUHU216HW,2013-01-14 02:40:00,
2013-01-13 18:45:00,39.0,15.3,30.07,North,0,0.0,0.0,38,0.00,,,0.00,WUHU216HW,2013-01-14 02:45:00,
2013-01-13 18:50:00,39.2,14.9,30.07,North,0,0.0,0.0,37,0.00,,,0.00,WUHU216HW,2013-01-14 02:50:00,
2013-01-13 18:55:00,39.2,14.2,30.07,North,0,0.0,0.0,36,0.00,,,0.00,WUHU216HW,2013-01-14 02:55:00,
2013-01-13 19:00:00,38.9,14.0,30.07,North,0,0.0,0.0,36,0.00,,,0.00,WUHU216HW,2013-01-14 03:00:00,
2013-01-13 19:05:00,38.9,14.6,30.08,North,0,0.0,0.0,37,0.00,,,0.00,WUHU216HW,2013-01-14 03:05:00,
2013-01-13 19:10:00,38.9,14.0,30.07,North,0,0.0,0.0,36,0.00,,,0.00,WUHU216HW,2013-01-14 03:10:00,
2013-01-13 19:15:00,38.9,13.3,30.07,North,0,0.0,0.0,35,0.00,,,0.00,WUHU216HW,2013-01-14 03:15:00,
2013-01-13 19:20:00,38.9,13.3,30.07,North,0,0.0,0.0,35,0.00,,,0.00,WUHU216HW,2013-01-14 03:20:00,
2013-01-13 19:26:00,38.8,11.9,30.07,North,0,0.0,0.0,33,0.00,,,0.00,WUHU216HW,2013-01-14 03:26:00,
2013-01-13 19:31:00,38.8,13.3,30.08,North,0,0.0,0.0,35,0.00,,,0.00,WUHU216HW,2013-01-14 03:31:00,
2013-01-13 19:36:00,38.8,11.9,30.08,North,0,0.0,0.0,33,0.00,,,0.00,WUHU216HW,2013-01-14 03:36:00,
2013-01-13 19:41:00,38.8,11.2,30.08,North,0,0.0,0.0,32,0.00,,,0.00,WUHU216HW,2013-01-14 03:41:00,
2013-01-13 19:46:00,38.8,10.5,30.09,North,0,0.0,0.0,31,0.00,,,0.00,WUHU216HW,2013-01-14 03:46:00,
2013-01-13 19:51:00,38.7,10.4,30.08,North,0,0.0,0.0,31,0.00,,,0.00,WUHU216HW,2013-01-14 03:51:00,
2013-01-13 19:56:00,38.7,9.7,30.08,North,0,0.0,0.0,30,0.00,,,0.00,WUHU216HW,2013-01-14 03:56:00,
2013-01-13 20:01:00,38.6,11.1,30.08,North,0,0.0,0.0,32,0.00,,,0.00,WUHU216HW,2013-01-14 04:01:00,
2013-01-13 20:06:00,38.4,10.1,30.08,North,0,0.0,0.0,31,0.00,,,0.00,WUHU216HW,2013-01-14 04:06:00,
2013-01-13 20:11:00,38.4,10.1,30.09,North,0,0.0,0.0,31,0.00,,,0.00,WUHU216HW,2013-01-14 04:11:00,
2013-01-13 20:16:00,38.3,10.1,30.09,North,0,0.0,0.0,31,0.00,,,0.00,WUHU216HW,2013-01-14 04:16:00,
2013-01-13 20:22:00,38.5,9.5,30.09,North,0,0.0,0.0,30,0.00,,,0.00,WUHU216HW,2013-01-14 04:22:00,
2013-01-13 20:27:00,38.4,9.4,30.09,North,0,0.0,0.0,30,0.00,,,0.00,WUHU216HW,2013-01-14 04:27:00,
2013-01-13 20:32:00,38.6,10.3,30.09,North,0,0.0,0.0,31,0.00,,,0.00,WUHU216HW,2013-01-14 04:32:00,
2013-01-13 20:37:00,38.5,10.3,30.09,North,0,0.0,0.0,31,0.00,,,0.00,WUHU216HW,2013-01-14 04:37:00,
2013-01-13 20:42:00,38.5,9.5,30.09,North,0,0.0,0.0,30,0.00,,,0.00,WUHU216HW,2013-01-14 04:42:00,
2013-01-13 20:47:00,38.5,10.2,30.09,North,0,0.0,0.0,31,0.00,,,0.00,WUHU216HW,2013-01-14 04:47:00,
2013-01-13 20:52:00,38.4,10.2,30.08,North,0,0.0,0.0,31,0.00,,,0.00,WUHU216HW,2013-01-14 04:52:00,
2013-01-13 20:57:00,38.2,11.4,30.09,North,0,0.0,0.0,33,0.00,,,0.00,WUHU216HW,2013-01-14 04:57:00,
2013-01-13 21:00:00,38.0,10.5,30.09,North,0,0.0,0.0,32,0.00,,,0.00,WUHU216HW,2013-01-14 05:00:00,
2013-01-13 21:01:00,38.0,10.5,30.09,North,0,0.0,0.0,32,0.00,,,0.00,WUHU216HW,2013-01-14 05:01:00,
2013-01-13 21:03:00,37.9,10.4,30.09,North,0,0.0,0.0,32,0.00,,,0.00,WUHU216HW,2013-01-14 05:03:00,
2013-01-13 21:08:00,37.9,10.4,30.09,North,0,0.0,0.0,32,0.00,,,0.00,WUHU216HW,2013-01-14 05:08:00,
2013-01-13 21:13:00,37.9,9.7,30.09,North,0,0.0,0.0,31,0.00,,,0.00,WUHU216HW,2013-01-14 05:13:00,
2013-01-13 21:19:00,37.8,10.4,30.08,North,0,0.0,0.0,32,0.00,,,0.00,WUHU216HW,2013-01-14 05:19:00,
2013-01-13 21:24:00,37.6,10.9,30.08,North,0,0.0,0.0,33,0.00,,,0.00,WUHU216HW,2013-01-14 05:24:00,
2013-01-13 21:29:00,37.4,10.7,30.08,North,0,0.0,0.0,33,0.00,,,0.00,WUHU216HW,2013-01-14 05:29:00,
2013-01-13 21:34:00,37.2,10.5,30.08,North,0,0.0,0.0,33,0.00,,,0.00,WUHU216HW,2013-01-14 05:34:00,
2013-01-13 21:39:00,37.4,10.6,30.08,North,0,0.0,0.0,33,0.00,,,0.00,WUHU216HW,2013-01-14 05:39:00,
2013-01-13 21:44:00,37.1,9.7,30.08,North,0,0.0,0.0,32,0.00,,,0.00,WUHU216HW,2013-01-14 05:44:00,
2013-01-13 21:49:00,37.1,10.4,30.09,North,0,0.0,0.0,33,0.00,,,0.00,WUHU216HW,2013-01-14 05:49:00,
2013-01-13 21:54:00,36.9,10.2,30.08,North,0,0.0,0.0,33,0.00,,,0.00,WUHU216HW,2013-01-14 05:54:00,
2013-01-13 21:59:00,37.1,10.4,30.07,North,0,0.0,0.0,33,0.00,,,0.00,WUHU216HW,2013-01-14 05:59:00,
2013-01-13 22:04:00,36.9,11.5,30.07,North,0,0.0,0.0,35,0.00,,,0.00,WUHU216HW,2013-01-14 06:04:00,
2013-01-13 22:10:00,36.8,11.4,30.07,North,0,0.0,0.0,35,0.00,,,0.00,WUHU216HW,2013-01-14 06:10:00,
2013-01-13 22:14:00,36.7,10.7,30.07,North,0,0.0,0.0,34,0.00,,,0.00,WUHU216HW,2013-01-14 06:14:00,
2013-01-13 22:20:00,36.7,11.4,30.08,North,0,0.0,0.0,35,0.00,,,0.00,WUHU216HW,2013-01-14 06:20:00,
2013-01-13 22:25:00,36.5,10.5,30.08,North,0,0.0,0.0,34,0.00,,,0.00,WUHU216HW,2013-01-14 06:25:00,
2013-01-13 22:30:00,36.5,11.2,30.08,North,0,0.0,0.0,35,0.00,,,0.00,WUHU216HW,2013-01-14 06:30:00,
2013-01-13 22:35:00,36.3,11.6,30.08,North,0,0.0,0.0,36,0.00,,,0.00,WUHU216HW,2013-01-14 06:35:00,
2013-01-13 22:40:00,36.3,11.6,30.09,North,0,0.0,0.0,36,0.00,,,0.00,WUHU216HW,2013-01-14 06:40:00,
2013-01-13 22:45:00,35.8,10.6,30.09,North,0,0.0,0.0,35,0.00,,,0.00,WUHU216HW,2013-01-14 06:45:00,
2013-01-13 22:50:00,35.8,11.2,30.09,North,0,0.0,0.0,36,0.00,,,0.00,WUHU216HW,2013-01-14 06:50:00,
2013-01-13 22:55:00,35.7,11.1,30.09,North,0,0.0,0.0,36,0.00,,,0.00,WUHU216HW,2013-01-14 06:55:00,
2013-01-13 23:00:00,35.7,11.1,30.09,North,0,0.0,0.0,36,0.00,,,0.00,WUHU216HW,2013-01-14 07:00:00,
2013-01-13 23:05:00,35.5,10.9,30.09,North,0,0.0,0.0,36,0.00,,,0.00,WUHU216HW,2013-01-14 07:05:00,
2013-01-13 23:10:00,35.3,11.4,30.09,North,0,0.0,0.0,37,0.00,,,0.00,WUHU216HW,2013-01-14 07:10:00,
2013-01-13 23:15:00,35.3,11.3,30.09,North,0,0.0,0.0,37,0.00,,,0.00,WUHU216HW,2013-01-14 07:15:00,
2013-01-13 23:20:00,34.8,11.0,30.09,North,0,0.0,0.0,37,0.00,,,0.00,WUHU216HW,2013-01-14 07:20:00,
2013-01-13 23:25:00,34.8,11.0,30.09,North,0,0.0,0.0,37,0.00,,,0.00,WUHU216HW,2013-01-14 07:25:00,
2013-01-13 23:30:00,34.8,10.9,30.10,North,0,0.0,0.0,37,0.00,,,0.00,WUHU216HW,2013-01-14 07:30:00,
2013-01-13 23:35:00,34.8,10.9,30.10,North,0,0.0,0.0,37,0.00,,,0.00,WUHU216HW,2013-01-14 07:35:00,
2013-01-13 23:40:00,34.8,10.9,30.10,North,0,0.0,0.0,37,0.00,,,0.00,WUHU216HW,2013-01-14 07:40:00,
2013-01-13 23:45:00,34.5,12.4,30.10,North,0,0.0,0.0,40,0.00,,,0.00,WUHU216HW,2013-01-14 07:45:00,
2013-01-13 23:50:00,34.3,11.1,30.10,North,0,0.0,0.0,38,0.00,,,0.00,WUHU216HW,2013-01-14 07:50:00,
2013-01-13 23:55:00,34.5,10.6,30.10,North,0,0.0,0.0,37,0.00,,,0.00,WUHU216HW,2013-01-14 07:55:00,